»·PEaware :: UAL959 KRNO-KSFO

UAL959 :: KRNO-KSFO

FLIGHT INFORMATION

Flight Status: Arrived
Operator:
United Airlines
More flights by this operator :: More flights under this callsign
Pilot: Ben F. (13029)
Aircraft: AIRBUS A320
(A320)
More flights by this aircraft type
Origin: KRNO Reno/Tahoe Intl
United States
Destination: KSFO San Francisco Intl
United States
More flights between these airports :: More routes between these airports
Route: ZEFFR6 MRLET LEGGS BDEGA3
File this flight plan on PilotEdge
Remarks: RMK / SIMBRIEF
Altitude:
(Current/Filed)
30,000ft
Speed:
(Current/Filed)
468kts
Departed: 16-Jul-20 07:07 PM
Arrived: 16-Jul-20 07:55 PM
Distance/Time
Traveled:
167nm/0:48
Distance/Time
To Go:
Arrived

Flight Plot

Page will automatically refresh every two minutes.

Flight plan parsing failed; only flown route is shown


Map Options




Map Legend


Flown Route
Filed Route
Departure Airport
Arrival Airport
Navaid (VOR, NDB)
Fix

Horizontal Profiles

Position Reports

Time Latitude Longitude Heading Altitude Ground
Speed
16-Jul-20 18:36 39.506535 -119.773842 357 4418ft 0kts
16-Jul-20 18:37 39.506535 -119.773842 357 4418ft 0kts
16-Jul-20 18:38 39.506535 -119.773842 357 4418ft 0kts
16-Jul-20 18:39 39.506535 -119.773842 357 4418ft 0kts
16-Jul-20 18:40 39.506535 -119.773842 357 4418ft 0kts
16-Jul-20 18:41 39.506535 -119.773842 357 4418ft 0kts
16-Jul-20 18:42 39.506535 -119.773842 357 4418ft 0kts
16-Jul-20 18:43 39.506535 -119.773842 357 4418ft 0kts
16-Jul-20 18:44 39.506535 -119.773842 357 4418ft 0kts
16-Jul-20 18:45 39.506535 -119.773842 357 4418ft 0kts
16-Jul-20 18:46 39.506535 -119.773842 357 4418ft 0kts
16-Jul-20 18:47 39.506535 -119.773842 357 4418ft 0kts
16-Jul-20 18:48 39.506535 -119.773842 357 4418ft 0kts
16-Jul-20 18:49 39.506535 -119.773842 357 4418ft 0kts
16-Jul-20 18:50 39.506535 -119.773842 357 4418ft 0kts
16-Jul-20 18:51 39.506535 -119.773842 357 4418ft 0kts
16-Jul-20 18:52 39.506416 -119.773836 357 4418ft 2kts
16-Jul-20 18:53 39.505914 -119.774064 81 4418ft 1kts
16-Jul-20 18:54 39.505913 -119.774183 90 4418ft 0kts
16-Jul-20 18:55 39.505913 -119.774183 90 4418ft 0kts
16-Jul-20 18:56 39.505913 -119.774183 90 4418ft 0kts
16-Jul-20 18:57 39.505913 -119.774102 90 4418ft 2kts
16-Jul-20 18:58 39.505913 -119.772806 89 4418ft 2kts
16-Jul-20 18:59 39.506727 -119.771488 1 4418ft 8kts
16-Jul-20 19:00 39.509721 -119.771495 0 4418ft 10kts
16-Jul-20 19:01 39.512983 -119.771472 1 4418ft 12kts
16-Jul-20 19:02 39.513734 -119.768513 88 4418ft 11kts
16-Jul-20 19:03 39.513737 -119.768009 90 4418ft 0kts
16-Jul-20 19:04 39.513737 -119.768009 90 4418ft 0kts
16-Jul-20 19:05 39.512975 -119.766775 175 4418ft 12kts
16-Jul-20 19:06 39.478981 -119.766310 180 5209ft 189kts
16-Jul-20 19:07 39.422851 -119.769987 181 7163ft 243kts
16-Jul-20 19:08 39.346736 -119.769884 183 9118ft 295kts
16-Jul-20 19:09 39.262767 -119.786622 194 11161ft 333kts
16-Jul-20 19:10 39.168260 -119.824896 223 12469ft 371kts
16-Jul-20 19:11 39.148194 -119.945987 282 14657ft 369kts
16-Jul-20 19:12 39.169976 -120.077214 282 16707ft 380kts
16-Jul-20 19:13 39.192644 -120.212981 282 18583ft 391kts
16-Jul-20 19:14 39.215794 -120.352040 281 20313ft 401kts
16-Jul-20 19:15 39.239265 -120.494033 281 21921ft 411kts
16-Jul-20 19:16 39.263170 -120.639805 281 23383ft 420kts
16-Jul-20 19:17 39.287387 -120.788721 280 24725ft 429kts
16-Jul-20 19:18 39.312023 -120.941516 280 25922ft 438kts
16-Jul-20 19:19 39.314685 -121.098145 253 26943ft 447kts
16-Jul-20 19:20 39.247167 -121.233922 230 27918ft 458kts
16-Jul-20 19:21 39.165311 -121.358749 230 29350ft 454kts
16-Jul-20 19:22 39.083541 -121.483497 230 29852ft 458kts
16-Jul-20 19:23 39.001891 -121.607509 230 29866ft 449kts
16-Jul-20 19:24 38.921024 -121.729925 229 29874ft 449kts
16-Jul-20 19:25 38.842945 -121.847661 229 29876ft 448kts
16-Jul-20 19:26 38.762047 -121.969180 229 29875ft 448kts
16-Jul-20 19:27 38.681090 -122.090327 229 29880ft 448kts
16-Jul-20 19:28 38.602163 -122.207923 229 29147ft 423kts
16-Jul-20 19:29 38.526757 -122.319943 229 28228ft 411kts
16-Jul-20 19:30 38.453151 -122.428916 229 26324ft 400kts
16-Jul-20 19:31 38.381507 -122.535425 229 24387ft 390kts
16-Jul-20 19:32 38.311919 -122.638565 229 22481ft 380kts
16-Jul-20 19:33 38.243903 -122.736858 218 20588ft 371kts
16-Jul-20 19:34 38.147640 -122.745711 166 18709ft 360kts
16-Jul-20 19:35 38.051443 -122.717248 167 16908ft 350kts
16-Jul-20 19:36 37.958016 -122.690125 166 15198ft 340kts
16-Jul-20 19:37 37.873606 -122.646063 139 13530ft 328kts
16-Jul-20 19:38 37.804502 -122.572549 139 11968ft 323kts
16-Jul-20 19:39 37.737847 -122.501984 139 11046ft 296kts
16-Jul-20 19:40 37.674600 -122.434746 138 11018ft 296kts
16-Jul-20 19:41 37.611236 -122.368148 141 11033ft 296kts
16-Jul-20 19:42 37.544551 -122.302483 141 10054ft 306kts
16-Jul-20 19:43 37.479565 -122.238422 141 7971ft 277kts
16-Jul-20 19:44 37.419873 -122.179301 141 6622ft 281kts
16-Jul-20 19:45 37.369097 -122.108244 93 5012ft 282kts
16-Jul-20 19:46 37.416977 -122.050915 347 4018ft 262kts
16-Jul-20 19:47 37.475156 -122.098272 323 4013ft 227kts
16-Jul-20 19:48 37.518630 -122.141017 310 4007ft 177kts
16-Jul-20 19:49 37.541653 -122.191176 299 3323ft 148kts
16-Jul-20 19:50 37.560215 -122.235407 299 2493ft 141kts
16-Jul-20 19:51 37.578332 -122.279070 302 2070ft 138kts
16-Jul-20 19:52 37.596009 -122.320705 297 955ft 130kts
16-Jul-20 19:53 37.612671 -122.360638 298 17ft 125kts
16-Jul-20 19:54 37.618065 -122.373463 298 16ft 29kts
16-Jul-20 19:56 37.619624 -122.379350 228 31ft 0kts
16-Jul-20 19:57 37.619447 -122.382264 223 32ft 11kts
16-Jul-20 19:58 37.619191 -122.383545 288 32ft 0kts
16-Jul-20 19:59 37.619191 -122.383545 288 32ft 0kts
16-Jul-20 20:00 37.619191 -122.383545 288 32ft 0kts
16-Jul-20 20:01 37.619191 -122.383545 288 32ft 0kts

Navigation Log

Ident Type
Flight plan parsing failed, navigation log unavailable